Time;durP1;ratioP1;P1;durP2;ratioP2;P2;SDS_P1;SDS_P2;PMS_P1;PMS_P2;Temp;Humidity;BMP_temperature;BMP_pressure;BME280_temperature;BME280_humidity;BME280_pressure;Samples;Min_cycle;Max_cycle;Signal;HPM_P1;HPM_P2
2023/01/01 00:01:12;;;;;;;18.08;4.53;;;;;;;14.84;53.69;100724.94;5018737;28;20021;-66
2023/01/01 00:03:38;;;;;;;15.52;4.38;;;;;;;14.87;53.28;100732.78;5023822;28;20065;-66
2023/01/01 00:06:11;;;;;;;17.75;5.13;;;;;;;14.86;54.02;100743.13;5025141;28;20029;-67
2023/01/01 00:08:38;;;;;;;18.70;6.30;;;;;;;14.88;52.58;100748.41;5023782;28;20080;-67
2023/01/01 00:11:04;;;;;;;14.70;5.55;;;;;;;14.85;53.64;100760.97;5012675;28;20038;-69
2023/01/01 00:13:33;;;;;;;17.13;4.63;;;;;;;14.83;53.20;100754.84;5013817;28;20039;-69
2023/01/01 00:16:10;;;;;;;15.13;5.65;;;;;;;14.86;53.60;100756.25;5013695;28;20037;-68
2023/01/01 00:18:36;;;;;;;13.63;5.28;;;;;;;14.84;53.06;100770.50;5011301;28;20120;-68
2023/01/01 00:21:09;;;;;;;14.80;5.50;;;;;;;14.83;52.98;100754.84;5020978;28;20239;-67
2023/01/01 00:23:41;;;;;;;17.42;4.15;;;;;;;14.83;52.22;100754.03;5024307;28;20044;-67
2023/01/01 00:26:13;;;;;;;12.07;3.60;;;;;;;14.84;52.50;100762.09;5022655;28;20440;-68
2023/01/01 00:28:38;;;;;;;14.60;5.32;;;;;;;14.86;52.79;100770.22;5012816;28;20041;-68
2023/01/01 00:31:12;;;;;;;8.73;3.80;;;;;;;14.86;52.33;100768.28;5026808;28;20112;-67
2023/01/01 00:33:37;;;;;;;14.20;3.80;;;;;;;14.84;52.44;100762.09;5013328;28;20033;-67
2023/01/01 00:36:07;;;;;;;17.67;5.03;;;;;;;14.84;53.49;100759.31;5022589;28;20037;-67
2023/01/01 00:38:33;;;;;;;14.93;3.92;;;;;;;14.83;52.74;100768.81;5029567;28;20045;-68
2023/01/01 00:40:58;;;;;;;15.70;3.90;;;;;;;14.85;52.41;100758.19;5019441;28;20014;-67
2023/01/01 00:43:23;;;;;;;14.35;3.80;;;;;;;14.84;53.58;100744.50;5025634;28;20061;-67
2023/01/01 00:45:51;;;;;;;11.52;3.88;;;;;;;14.81;53.49;100754.28;5024075;28;20424;-67
2023/01/01 00:48:18;;;;;;;10.77;3.78;;;;;;;14.82;53.52;100744.81;5012495;28;20120;-67
2023/01/01 00:50:43;;;;;;;12.88;4.15;;;;;;;14.82;52.41;100761.56;5009839;28;20084;-67
2023/01/01 00:53:09;;;;;;;11.90;3.90;;;;;;;14.84;52.43;100741.72;5021997;28;20057;-67
2023/01/01 00:55:34;;;;;;;13.43;3.88;;;;;;;14.84;52.42;100730.53;5028974;28;20025;-67
2023/01/01 00:57:59;;;;;;;10.35;3.60;;;;;;;14.85;52.11;100762.94;5028308;28;20505;-68
2023/01/01 01:00:25;;;;;;;11.45;3.70;;;;;;;14.84;53.07;100770.50;5017912;28;20079;-67
2023/01/01 01:02:50;;;;;;;13.98;3.85;;;;;;;14.84;51.78;100767.69;5015260;28;20021;-68
2023/01/01 01:05:15;;;;;;;9.80;3.55;;;;;;;14.86;51.60;100768.28;5017444;28;20148;-68
2023/01/01 01:07:41;;;;;;;11.77;3.03;;;;;;;14.86;52.86;100767.44;5025903;28;20095;-68
2023/01/01 01:10:08;;;;;;;8.55;3.33;;;;;;;14.84;51.72;100770.50;5026119;28;20464;-68
2023/01/01 01:12:35;;;;;;;7.63;2.58;;;;;;;14.83;51.87;100780.00;5032958;28;20269;-67
2023/01/01 01:15:00;;;;;;;10.95;3.47;;;;;;;14.83;52.33;100757.66;5032576;28;20022;-68
2023/01/01 01:17:26;;;;;;;9.80;3.00;;;;;;;14.81;52.37;100765.47;5026503;28;20370;-68
2023/01/01 01:19:51;;;;;;;9.88;2.67;;;;;;;14.82;53.09;100767.16;5032809;28;20068;-68
2023/01/01 01:22:17;;;;;;;9.18;2.92;;;;;;;14.80;52.58;100755.41;5025477;28;20034;-66
2023/01/01 01:24:42;;;;;;;7.97;2.75;;;;;;;14.81;52.27;100754.28;5025395;28;20480;-67
2023/01/01 01:27:07;;;;;;;9.45;2.88;;;;;;;14.79;52.59;100767.72;5032312;28;20612;-67
2023/01/01 01:29:32;;;;;;;8.38;2.80;;;;;;;14.78;53.12;100790.38;5032217;28;20029;-67
2023/01/01 01:31:58;;;;;;;8.07;3.05;;;;;;;14.77;52.25;100774.69;5029345;28;20037;-67
2023/01/01 01:34:23;;;;;;;10.25;3.60;;;;;;;14.77;53.24;100792.31;5031010;28;20044;-67
2023/01/01 01:36:48;;;;;;;13.02;2.92;;;;;;;14.77;52.56;100783.09;5030576;28;20033;-67
2023/01/01 01:39:14;;;;;;;9.63;2.85;;;;;;;14.77;52.75;100797.06;5031461;28;20037;-67
2023/01/01 01:41:39;;;;;;;10.38;2.92;;;;;;;14.75;53.37;100788.97;5025470;28;20485;-67
2023/01/01 01:44:42;;;;;;;9.05;2.80;;;;;;;14.74;53.51;100787.31;5019497;28;20058;-67
2023/01/01 01:47:16;;;;;;;10.25;2.53;;;;;;;14.73;52.51;100785.59;5026927;28;20137;-67
2023/01/01 01:49:43;;;;;;;13.30;2.70;;;;;;;14.70;53.12;100792.63;5032070;28;20025;-67
2023/01/01 01:52:09;;;;;;;14.32;3.20;;;;;;;14.69;52.34;100795.66;5027304;28;20045;-67
2023/01/01 01:54:34;;;;;;;12.90;3.35;;;;;;;14.68;52.29;100789.25;5031213;28;20546;-67
2023/01/01 01:57:06;;;;;;;9.40;3.10;;;;;;;14.67;52.73;100815.53;5026606;28;20092;-67
2023/01/01 01:59:36;;;;;;;11.57;3.08;;;;;;;14.65;52.50;100817.75;5030325;28;20492;-67
2023/01/01 02:02:01;;;;;;;8.13;2.78;;;;;;;14.63;52.67;100817.19;5031612;28;20458;-67
2023/01/01 02:04:30;;;;;;;9.52;2.72;;;;;;;14.64;52.56;100813.28;5031646;28;20065;-67
2023/01/01 02:06:55;;;;;;;9.30;2.63;;;;;;;14.63;52.24;100819.16;5030387;28;20103;-67
2023/01/01 02:09:23;;;;;;;9.52;2.78;;;;;;;14.61;52.44;100832.56;5020638;28;20038;-67
2023/01/01 02:11:54;;;;;;;8.07;2.60;;;;;;;14.59;52.51;100832.84;5023603;28;20035;-67
2023/01/01 02:14:19;;;;;;;13.95;2.83;;;;;;;14.59;52.15;100818.06;5015932;28;20029;-67
2023/01/01 02:17:10;;;;;;;11.50;2.70;;;;;;;14.61;53.93;100815.78;5011682;28;20042;-67
2023/01/01 02:20:00;;;;;;;6.00;2.20;;;;;;;14.61;53.28;100824.19;5030653;28;20029;-67
2023/01/01 02:22:56;;;;;;;9.00;2.65;;;;;;;14.58;52.61;100821.94;5030730;28;20026;-67
2023/01/01 02:25:24;;;;;;;8.48;2.33;;;;;;;14.57;52.00;100809.09;5028348;28;20067;-67
2023/01/01 02:28:11;;;;;;;9.48;2.47;;;;;;;14.57;53.47;100820.28;5029418;28;20061;-67
2023/01/01 02:30:43;;;;;;;6.32;2.08;;;;;;;14.56;52.94;100829.78;5014598;28;20037;-67
2023/01/01 02:33:24;;;;;;;7.13;2.20;;;;;;;14.55;52.61;100816.94;5018908;28;20076;-67
2023/01/01 02:35:59;;;;;;;7.80;2.60;;;;;;;14.53;52.27;100822.78;5023542;28;20137;-67
2023/01/01 02:38:30;;;;;;;8.93;2.70;;;;;;;14.50;51.79;100828.94;5031220;28;20084;-68
2023/01/01 02:40:59;;;;;;;9.90;2.42;;;;;;;14.49;51.94;100833.69;5029428;28;20108;-67
2023/01/01 02:43:25;;;;;;;6.70;2.30;;;;;;;14.49;52.30;100825.31;5029012;28;20061;-67
2023/01/01 02:45:52;;;;;;;13.80;2.83;;;;;;;14.50;51.74;100831.72;5029558;28;20068;-67
2023/01/01 02:48:35;;;;;;;8.35;2.28;;;;;;;14.54;52.98;100804.06;5017278;28;20121;-67
2023/01/01 02:51:08;;;;;;;5.00;1.92;;;;;;;14.48;53.26;100829.19;5029890;28;20061;-67
2023/01/01 02:53:36;;;;;;;9.48;2.85;;;;;;;14.47;52.55;100838.69;5027442;28;20489;-67
2023/01/01 02:56:33;;;;;;;6.97;1.88;;;;;;;14.47;53.26;100833.09;5010493;28;20477;-67
2023/01/01 03:02:11;;;;;;;6.75;2.30;;;;;;;14.44;53.41;100844.81;5030852;28;20033;-67
2023/01/01 03:04:39;;;;;;;8.85;1.98;;;;;;;14.44;52.88;100838.41;5019404;28;20034;-68
2023/01/01 03:07:55;;;;;;;7.75;1.90;;;;;;;14.48;54.00;100853.50;5031241;28;20033;-67
2023/01/01 03:10:31;;;;;;;8.00;2.30;;;;;;;14.45;53.37;100852.09;4993769;28;20502;-66
2023/01/01 03:13:09;;;;;;;6.18;2.25;;;;;;;14.46;53.90;100844.53;5016077;28;20044;-67
2023/01/01 03:15:59;;;;;;;9.25;3.15;;;;;;;14.47;54.43;100849.03;5029749;28;20029;-67
2023/01/01 03:18:32;;;;;;;10.32;2.20;;;;;;;14.45;53.51;100862.41;5031388;28;20033;-68
2023/01/01 03:21:02;;;;;;;5.07;2.20;;;;;;;14.44;53.55;100853.22;5028983;28;20030;-68
2023/01/01 03:23:35;;;;;;;9.30;2.22;;;;;;;14.42;53.98;100862.97;5029999;28;20064;-67
2023/01/01 03:26:06;;;;;;;9.02;2.30;;;;;;;14.41;54.30;100850.97;5026380;28;20034;-67
2023/01/01 03:28:37;;;;;;;9.38;2.42;;;;;;;14.41;54.27;100864.09;5031246;28;20026;-67
2023/01/01 03:31:03;;;;;;;6.22;2.38;;;;;;;14.44;54.27;100852.38;5023944;28;20046;-66
2023/01/01 03:33:33;;;;;;;8.57;2.45;;;;;;;14.42;53.90;100852.66;5028861;28;20103;-68
2023/01/01 03:36:12;;;;;;;8.45;2.50;;;;;;;14.42;54.71;100846.22;5029467;28;20021;-67
2023/01/01 03:38:49;;;;;;;11.05;2.38;;;;;;;14.40;54.45;100866.06;5020014;28;20029;-67
2023/01/01 03:41:25;;;;;;;6.97;2.13;;;;;;;14.39;54.62;100869.97;5025149;28;20048;-68
2023/01/01 03:44:10;;;;;;;7.28;2.22;;;;;;;14.40;55.19;100860.47;5029974;28;20025;-67
2023/01/01 03:46:36;;;;;;;7.88;2.00;;;;;;;14.38;54.75;100871.09;5030229;28;20123;-67
2023/01/01 03:49:04;;;;;;;8.13;2.20;;;;;;;14.38;54.51;100887.84;5021303;28;20156;-67
2023/01/01 03:51:53;;;;;;;7.07;2.70;;;;;;;14.37;54.27;100886.16;5021020;28;20385;-67
2023/01/01 03:54:33;;;;;;;5.80;2.13;;;;;;;14.39;54.87;100877.50;5029543;28;20044;-67
2023/01/01 03:57:09;;;;;;;8.27;2.17;;;;;;;14.37;54.59;100877.78;5030534;28;20029;-67
2023/01/01 04:00:04;;;;;;;5.60;2.00;;;;;;;14.42;55.91;100880.59;5026769;28;20112;-68
2023/01/01 04:02:37;;;;;;;7.35;2.08;;;;;;;14.38;54.94;100885.06;5028300;28;20038;-67
2023/01/01 04:05:06;;;;;;;6.80;1.85;;;;;;;14.37;54.60;100894.53;5028671;28;20064;-68
2023/01/01 04:07:32;;;;;;;10.18;2.50;;;;;;;14.37;54.96;100894.53;5016671;28;20038;-67
2023/01/01 04:10:00;;;;;;;9.27;2.30;;;;;;;14.35;55.15;100895.94;5030024;28;20547;-67
2023/01/01 04:12:25;;;;;;;7.78;2.40;;;;;;;14.36;55.43;100887.28;5010560;28;20073;-67
2023/01/01 04:14:50;;;;;;;8.75;2.10;;;;;;;14.34;55.30;100902.63;5022082;28;20056;-67
2023/01/01 04:17:16;;;;;;;6.65;2.20;;;;;;;14.33;55.46;100907.38;5028179;28;20745;-67
2023/01/01 04:19:41;;;;;;;7.70;2.03;;;;;;;14.32;55.59;100911.28;5028585;28;20041;-67
2023/01/01 04:22:07;;;;;;;8.80;2.40;;;;;;;14.32;55.67;100893.69;5027833;28;20024;-67
2023/01/01 04:24:32;;;;;;;8.32;2.30;;;;;;;14.31;55.36;100898.44;5027699;28;20033;-67
2023/01/01 04:26:57;;;;;;;7.25;2.38;;;;;;;14.30;55.79;100891.16;5028929;28;20025;-67
2023/01/01 04:29:23;;;;;;;9.68;2.28;;;;;;;14.31;55.68;100890.06;5029051;28;20731;-67
2023/01/01 04:31:48;;;;;;;7.53;2.05;;;;;;;14.31;55.77;100878.06;5029887;28;20036;-66
2023/01/01 04:34:14;;;;;;;6.70;2.20;;;;;;;14.31;55.99;100890.06;5023216;28;20045;-67
2023/01/01 04:36:40;;;;;;;12.27;2.67;;;;;;;14.31;56.65;100901.22;5026030;28;20029;-66
2023/01/01 04:39:05;;;;;;;10.25;2.60;;;;;;;14.30;55.97;100907.91;5017902;28;20476;-66
2023/01/01 04:41:31;;;;;;;8.25;2.15;;;;;;;14.30;56.08;100913.50;5011122;28;20109;-66
2023/01/01 04:43:56;;;;;;;5.78;2.05;;;;;;;14.30;56.91;100921.88;5009979;28;20034;-67
2023/01/01 04:46:23;;;;;;;9.23;2.00;;;;;;;14.31;56.45;100928.31;5019295;28;20065;-67
2023/01/01 04:48:49;;;;;;;7.35;2.15;;;;;;;14.30;56.89;100913.50;5031270;28;20568;-67
2023/01/01 04:51:16;;;;;;;5.63;2.08;;;;;;;14.32;57.15;100924.41;5032239;28;20060;-67
2023/01/01 04:53:42;;;;;;;7.90;2.30;;;;;;;14.27;56.75;100919.66;5032414;28;20044;-67
2023/01/01 04:56:08;;;;;;;6.03;2.35;;;;;;;14.30;57.01;100930.25;5030750;28;20469;-67
2023/01/01 04:58:36;;;;;;;6.80;1.90;;;;;;;14.30;58.41;100927.44;5022357;28;20037;-67
2023/01/01 05:01:01;;;;;;;9.98;2.85;;;;;;;14.30;57.37;100929.41;5032202;28;20121;-67
2023/01/01 05:03:27;;;;;;;6.47;2.00;;;;;;;14.28;57.38;100928.88;5032566;28;20544;-67
2023/01/01 05:06:03;;;;;;;11.02;2.75;;;;;;;14.28;57.63;100935.28;5032415;28;20037;-67
2023/01/01 05:08:30;;;;;;;9.07;2.83;;;;;;;14.27;57.33;100947.56;5026370;28;20038;-67
2023/01/01 05:11:04;;;;;;;7.47;2.15;;;;;;;14.27;57.91;100961.53;5017983;28;20033;-67
2023/01/01 05:13:30;;;;;;;8.05;2.08;;;;;;;14.23;57.46;100954.81;5025163;28;20084;-67
2023/01/01 05:15:55;;;;;;;7.00;2.47;;;;;;;14.23;57.64;100952.88;5029758;28;20043;-67
2023/01/01 05:18:21;;;;;;;4.55;2.08;;;;;;;14.23;58.45;100955.66;5031253;28;20131;-67
2023/01/01 05:20:47;;;;;;;8.68;2.70;;;;;;;14.23;57.96;100963.19;5032951;28;20022;-66
2023/01/01 05:23:15;;;;;;;10.35;2.72;;;;;;;14.25;58.27;100969.34;5029490;28;20465;-66
2023/01/01 05:25:41;;;;;;;11.10;2.45;;;;;;;14.24;58.09;100993.63;5015621;28;20061;-67
2023/01/01 05:28:07;;;;;;;7.43;2.15;;;;;;;14.23;58.21;101003.13;5031405;28;20095;-66
2023/01/01 05:30:32;;;;;;;9.35;2.22;;;;;;;14.26;58.16;101007.28;5029262;28;20113;-67
2023/01/01 05:32:57;;;;;;;6.07;2.58;;;;;;;14.23;58.43;101003.13;5031258;28;20029;-66
2023/01/01 05:35:23;;;;;;;5.30;2.30;;;;;;;14.25;59.45;101002.84;5013437;28;20036;-66
2023/01/01 05:37:50;;;;;;;6.32;2.20;;;;;;;14.23;58.58;101013.44;5029722;28;20029;-66
2023/01/01 05:40:15;;;;;;;8.25;2.47;;;;;;;14.18;58.61;101017.03;5031796;28;20038;-66
2023/01/01 05:42:41;;;;;;;12.27;2.65;;;;;;;14.18;58.54;101005.03;5027524;28;20030;-66
2023/01/01 05:45:06;;;;;;;8.05;2.53;;;;;;;14.15;58.83;101019.56;5012773;28;20057;-66
2023/01/01 05:47:32;;;;;;;8.57;2.50;;;;;;;14.09;58.99;101021.47;5025268;28;20037;-66
2023/01/01 05:49:57;;;;;;;8.65;2.33;;;;;;;14.12;58.75;101034.06;5016382;28;20076;-66
2023/01/01 05:52:22;;;;;;;8.68;2.35;;;;;;;14.12;59.21;101028.47;5016359;28;20453;-66
2023/01/01 05:54:47;;;;;;;5.45;2.15;;;;;;;14.14;59.13;101034.63;5015057;28;20088;-67
2023/01/01 05:57:13;;;;;;;4.75;2.08;;;;;;;14.13;59.28;101038.53;5010738;28;20048;-66
2023/01/01 05:59:38;;;;;;;9.02;2.42;;;;;;;14.15;59.53;101044.69;5026029;28;20384;-67
2023/01/01 06:02:03;;;;;;;6.30;2.58;;;;;;;14.15;59.39;101053.06;5017431;28;20570;-67
2023/01/01 06:04:29;;;;;;;8.32;2.30;;;;;;;14.12;59.71;101048.00;5026901;28;20085;-68
2023/01/01 06:06:54;;;;;;;7.07;2.20;;;;;;;14.09;60.04;101056.94;5012511;28;20030;-67
2023/01/01 06:09:19;;;;;;;11.35;3.13;;;;;;;14.11;59.49;101049.09;5024721;28;20111;-67
2023/01/01 06:11:44;;;;;;;10.55;2.80;;;;;;;14.11;59.88;101061.13;5013925;28;20038;-67
2023/01/01 06:14:10;;;;;;;8.02;2.47;;;;;;;14.11;59.65;101057.47;5024619;28;20037;-67
2023/01/01 06:16:35;;;;;;;7.25;2.42;;;;;;;14.13;59.78;101066.44;5027043;28;20029;-67
2023/01/01 06:19:00;;;;;;;9.00;2.55;;;;;;;14.10;59.74;101070.59;5026620;28;20505;-67
2023/01/01 06:21:27;;;;;;;9.18;2.95;;;;;;;14.09;59.54;101073.69;5021368;28;20033;-67
2023/01/01 06:23:55;;;;;;;8.68;2.65;;;;;;;14.07;60.11;101081.47;5029744;28;20045;-68
2023/01/01 06:26:23;;;;;;;6.88;2.28;;;;;;;14.09;60.12;101096.00;5028057;28;20033;-67
2023/01/01 06:28:49;;;;;;;7.80;2.40;;;;;;;14.06;60.97;101122.50;5027767;28;20038;-67
2023/01/01 06:31:17;;;;;;;9.43;2.25;;;;;;;14.05;63.31;101133.94;5029933;28;20036;-67
2023/01/01 06:33:44;;;;;;;6.75;2.20;;;;;;;13.96;64.39;101134.44;5028117;28;20560;-68
2023/01/01 06:36:13;;;;;;;9.55;3.08;;;;;;;13.93;64.65;101148.09;5028278;28;20051;-67
2023/01/01 06:38:42;;;;;;;7.38;2.63;;;;;;;13.86;65.55;101156.69;5029909;28;20107;-67
2023/01/01 06:41:14;;;;;;;7.35;2.70;;;;;;;13.83;65.48;101146.06;5026965;28;20530;-67
2023/01/01 06:43:39;;;;;;;6.47;2.17;;;;;;;13.85;65.76;101145.81;5029590;28;20060;-67
2023/01/01 06:46:27;;;;;;;9.27;3.15;;;;;;;13.86;65.46;101151.09;5031336;28;20056;-67
2023/01/01 06:48:55;;;;;;;10.25;2.83;;;;;;;13.78;66.94;101164.72;5029555;28;20103;-66
2023/01/01 06:51:26;;;;;;;7.97;3.17;;;;;;;13.75;67.05;101166.94;5030091;28;20041;-66
2023/01/01 06:53:51;;;;;;;9.20;3.20;;;;;;;13.75;67.87;101178.09;5028637;28;20029;-67
2023/01/01 06:56:17;;;;;;;8.00;2.97;;;;;;;13.69;68.30;101181.94;5024690;28;20131;-68
2023/01/01 06:58:43;;;;;;;7.70;2.92;;;;;;;13.67;68.56;101186.09;5029953;28;20057;-67
2023/01/01 07:01:14;;;;;;;9.75;2.80;;;;;;;13.66;68.44;101181.63;5028664;28;20668;-67
2023/01/01 07:03:40;;;;;;;6.22;2.55;;;;;;;13.60;68.82;101191.91;5023636;28;20064;-67
2023/01/01 07:06:07;;;;;;;9.60;2.78;;;;;;;13.55;68.99;101189.06;5027725;28;20029;-67
2023/01/01 07:08:33;;;;;;;8.13;2.90;;;;;;;13.48;69.78;101192.09;5028706;28;20499;-67
2023/01/01 07:10:58;;;;;;;6.22;2.50;;;;;;;13.50;69.99;101189.88;5028130;28;20119;-67
2023/01/01 07:13:24;;;;;;;10.38;2.72;;;;;;;13.48;70.09;101206.03;5024919;28;20064;-67
2023/01/01 07:15:50;;;;;;;7.90;2.50;;;;;;;13.45;70.00;101212.13;5023510;28;20366;-67
2023/01/01 07:18:15;;;;;;;9.38;2.42;;;;;;;13.44;69.91;101207.66;5029717;28;20056;-67
2023/01/01 07:20:40;;;;;;;8.13;2.58;;;;;;;13.43;69.38;101205.13;5028810;28;20029;-67
2023/01/01 07:23:06;;;;;;;6.00;2.17;;;;;;;13.41;68.89;101199.00;5028035;28;20072;-67
2023/01/01 07:25:31;;;;;;;9.05;1.65;;;;;;;13.30;67.96;101199.97;5027832;28;20087;-67
2023/01/01 07:27:56;;;;;;;7.25;1.88;;;;;;;13.23;67.67;101214.13;5026209;28;20045;-67
2023/01/01 07:30:21;;;;;;;5.47;1.95;;;;;;;13.20;67.59;101207.13;5028235;28;20037;-67
2023/01/01 07:32:53;;;;;;;7.95;1.85;;;;;;;13.24;68.05;101211.09;5029698;28;20220;-67
2023/01/01 07:35:18;;;;;;;4.50;1.50;;;;;;;13.27;68.26;101220.84;5030307;28;20037;-67
2023/01/01 07:37:44;;;;;;;5.97;1.50;;;;;;;13.28;68.19;101228.09;5028949;28;20387;-67
2023/01/01 07:40:10;;;;;;;4.82;1.35;;;;;;;13.23;67.96;101233.63;5028119;28;20033;-66
2023/01/01 07:42:35;;;;;;;4.57;1.85;;;;;;;13.26;68.68;101235.91;5029254;28;20115;-66
2023/01/01 07:45:00;;;;;;;5.80;1.90;;;;;;;13.24;68.87;101225.03;5027176;28;20567;-67
2023/01/01 07:47:26;;;;;;;5.88;1.88;;;;;;;13.21;69.03;101239.44;5022246;28;20025;-67
2023/01/01 07:49:52;;;;;;;8.95;1.90;;;;;;;13.22;69.36;101251.44;5025554;28;20541;-66
2023/01/01 07:52:17;;;;;;;9.30;1.90;;;;;;;13.21;69.75;101250.59;5029861;28;20037;-66
2023/01/01 07:54:43;;;;;;;6.00;1.45;;;;;;;13.22;70.01;101248.66;5029801;28;20022;-67
2023/01/01 07:57:08;;;;;;;6.95;1.83;;;;;;;13.21;70.62;101255.34;5026467;28;20029;-66
2023/01/01 07:59:34;;;;;;;5.18;1.60;;;;;;;13.21;70.35;101255.34;5029664;28;20508;-66
2023/01/01 08:01:59;;;;;;;6.38;1.70;;;;;;;13.18;70.45;101276.19;5028654;28;20391;-67
2023/01/01 08:04:25;;;;;;;4.68;1.88;;;;;;;13.18;71.20;101289.31;5015852;28;20045;-66
2023/01/01 08:06:52;;;;;;;8.75;2.00;;;;;;;13.20;71.28;101301.00;5028132;28;20068;-66
2023/01/01 08:09:17;;;;;;;4.47;1.80;;;;;;;13.17;71.33;101312.72;5028176;28;20047;-66
2023/01/01 08:11:42;;;;;;;8.52;2.13;;;;;;;13.10;71.88;101310.09;5028146;28;20034;-66
2023/01/01 08:14:08;;;;;;;8.63;2.17;;;;;;;13.09;71.97;101321.53;5028031;28;20047;-67
2023/01/01 08:16:33;;;;;;;7.82;2.20;;;;;;;13.08;72.04;101317.03;5025637;28;20029;-67
2023/01/01 08:18:58;;;;;;;8.85;2.30;;;;;;;13.03;72.33;101320.59;5027850;28;20527;-66
2023/01/01 08:21:24;;;;;;;10.88;2.33;;;;;;;13.02;72.60;101311.41;5016861;28;20088;-67
2023/01/01 08:23:49;;;;;;;8.88;2.38;;;;;;;13.00;72.89;101309.97;5013501;28;20036;-66
2023/01/01 08:26:16;;;;;;;9.98;2.70;;;;;;;13.02;72.86;101313.34;5030035;28;20079;-67
2023/01/01 08:28:42;;;;;;;8.00;2.72;;;;;;;12.93;73.08;101315.75;5032128;28;20025;-67
2023/01/01 08:31:07;;;;;;;9.10;2.03;;;;;;;12.94;73.50;101320.22;5031588;28;20036;-67
2023/01/01 08:33:32;;;;;;;7.63;2.80;;;;;;;12.95;73.16;101318.25;5032476;28;20029;-67
2023/01/01 08:35:59;;;;;;;9.70;2.38;;;;;;;12.94;73.49;101328.56;5029085;28;20030;-67
2023/01/01 08:38:24;;;;;;;7.68;2.90;;;;;;;12.95;73.64;101324.66;5031823;28;20121;-67
2023/01/01 08:40:49;;;;;;;8.35;2.13;;;;;;;12.97;73.46;101325.28;5032954;28;20120;-67
2023/01/01 08:43:15;;;;;;;7.10;2.03;;;;;;;12.96;73.71;101340.28;5029284;28;20110;-67
2023/01/01 08:45:40;;;;;;;8.90;2.40;;;;;;;12.99;73.75;101356.50;5031849;28;20108;-68
2023/01/01 08:48:05;;;;;;;7.88;2.05;;;;;;;12.94;73.98;101348.06;5030645;28;20032;-68
2023/01/01 08:50:31;;;;;;;9.18;2.30;;;;;;;12.97;73.88;101339.19;5015632;28;20060;-67
2023/01/01 08:52:57;;;;;;;8.70;2.78;;;;;;;12.96;74.20;101342.22;5018181;28;20026;-67
2023/01/01 08:55:23;;;;;;;6.85;2.00;;;;;;;12.95;74.08;101355.31;5011666;28;20133;-67
2023/01/01 08:57:49;;;;;;;7.18;2.35;;;;;;;12.96;74.47;101365.34;5029075;28;20149;-67
2023/01/01 09:00:16;;;;;;;8.35;2.75;;;;;;;12.94;74.63;101362.00;5031389;28;20112;-68
2023/01/01 09:02:41;;;;;;;7.00;2.60;;;;;;;12.89;74.42;101353.56;5032443;28;20041;-67
2023/01/01 09:05:08;;;;;;;8.07;2.53;;;;;;;12.88;74.84;101343.50;5031113;28;20442;-68
2023/01/01 09:07:33;;;;;;;9.20;2.53;;;;;;;12.92;74.63;101335.47;5014375;28;20041;-67
2023/01/01 09:09:58;;;;;;;10.35;2.40;;;;;;;12.92;74.75;101341.91;5021918;28;20079;-67
2023/01/01 09:12:24;;;;;;;6.88;2.35;;;;;;;12.97;74.91;101352.28;5018607;28;20029;-69
2023/01/01 09:14:49;;;;;;;8.13;2.40;;;;;;;12.94;74.59;101367.56;5024837;28;20033;-70
2023/01/01 09:17:15;;;;;;;6.78;2.35;;;;;;;12.92;74.47;101366.13;5027255;28;20129;-68
2023/01/01 09:19:40;;;;;;;8.13;2.40;;;;;;;12.93;75.12;101371.47;5028847;28;20074;-67
2023/01/01 09:22:12;;;;;;;8.57;2.45;;;;;;;12.87;75.59;101366.06;5029304;28;20159;-67
2023/01/01 09:24:37;;;;;;;8.27;2.58;;;;;;;12.93;74.82;101357.53;5030487;28;20025;-67
2023/01/01 09:27:03;;;;;;;9.20;2.90;;;;;;;12.88;75.26;101354.66;5029361;28;20388;-68
2023/01/01 09:29:28;;;;;;;7.80;2.53;;;;;;;12.95;75.33;101354.47;5024391;28;20110;-69
2023/01/01 09:31:53;;;;;;;10.48;2.80;;;;;;;12.90;75.37;101360.81;5027750;28;20343;-68
2023/01/01 09:34:19;;;;;;;10.82;3.00;;;;;;;12.89;75.56;101372.22;5026109;28;20116;-67
2023/01/01 09:36:44;;;;;;;11.30;3.03;;;;;;;12.89;75.94;101373.06;5025555;28;20048;-69
2023/01/01 09:39:14;;;;;;;8.10;2.97;;;;;;;12.92;75.75;101375.31;5026287;28;20036;-69
2023/01/01 09:41:49;;;;;;;7.72;2.85;;;;;;;12.86;76.14;101389.47;5021214;28;20734;-66
2023/01/01 09:44:31;;;;;;;7.05;2.80;;;;;;;12.89;75.80;101373.06;5025466;28;20523;-66
2023/01/01 09:47:01;;;;;;;7.40;2.58;;;;;;;12.93;75.30;101382.63;5027674;28;20029;-66
2023/01/01 09:49:45;;;;;;;6.88;2.58;;;;;;;12.93;75.46;101382.63;5022783;28;20120;-67
2023/01/01 09:52:13;;;;;;;6.68;2.38;;;;;;;12.88;75.63;101379.72;5022703;28;20061;-69
2023/01/01 09:54:46;;;;;;;10.07;2.95;;;;;;;12.85;75.75;101380.25;5018221;28;20068;-67
2023/01/01 09:57:13;;;;;;;8.75;2.63;;;;;;;12.88;75.47;101390.03;5019931;28;20048;-68
2023/01/01 09:59:39;;;;;;;7.32;2.75;;;;;;;12.85;75.37;101388.63;5017902;28;20054;-66
2023/01/01 10:02:26;;;;;;;7.03;3.10;;;;;;;12.90;75.40;101373.91;5023714;28;20029;-68
2023/01/01 10:05:29;;;;;;;9.77;5.03;;;;;;;12.90;75.26;101376.72;5016583;28;20061;-66
2023/01/01 10:08:19;;;;;;;10.20;4.90;;;;;;;12.91;75.12;101379.22;5027263;28;20104;-68
2023/01/01 10:11:19;;;;;;;10.13;5.93;;;;;;;12.90;74.77;101374.75;5028854;28;20562;-66
2023/01/01 10:13:45;;;;;;;11.38;10.20;;;;;;;12.82;75.35;101375.19;5011530;28;20040;-67
2023/01/01 10:16:19;;;;;;;12.80;7.90;;;;;;;12.81;75.30;101373.53;5023699;28;20440;-68
2023/01/01 10:18:52;;;;;;;11.43;7.80;;;;;;;12.84;75.09;101366.56;5029586;28;20037;-69
2023/01/01 10:21:32;;;;;;;9.45;4.60;;;;;;;12.84;74.92;101377.72;5028273;28;20030;-64
2023/01/01 10:24:03;;;;;;;13.80;4.65;;;;;;;12.87;74.79;101372.47;5017907;28;20033;-64
2023/01/01 10:26:30;;;;;;;12.60;4.32;;;;;;;12.87;74.59;101378.06;5024865;28;20104;-64
2023/01/01 10:29:11;;;;;;;11.25;3.97;;;;;;;12.90;74.79;101371.97;5021810;28;20021;-65
2023/01/01 10:31:40;;;;;;;8.63;4.30;;;;;;;12.93;75.20;101381.75;5024548;28;20037;-63
2023/01/01 10:34:11;;;;;;;11.48;4.60;;;;;;;12.98;74.69;101388.25;5028583;28;20083;-68
2023/01/01 10:36:36;;;;;;;9.70;3.63;;;;;;;12.95;73.86;101385.13;5027849;28;20540;-70
2023/01/01 10:39:02;;;;;;;9.25;4.10;;;;;;;12.96;73.76;101382.06;5028529;28;20040;-68
2023/01/01 10:41:27;;;;;;;11.45;4.70;;;;;;;12.99;74.21;101376.00;5025386;28;20026;-68
2023/01/01 10:43:53;;;;;;;12.85;4.30;;;;;;;13.03;74.19;101379.13;5025144;28;20032;-69
2023/01/01 10:46:23;;;;;;;12.00;4.40;;;;;;;13.06;73.43;101374.97;5016598;28;20033;-69
2023/01/01 10:49:10;;;;;;;10.75;4.30;;;;;;;13.11;73.56;101375.03;5019479;28;20029;-66
2023/01/01 10:51:42;;;;;;;9.05;3.78;;;;;;;13.13;73.00;101381.22;5026176;28;20049;-66
2023/01/01 10:54:35;;;;;;;15.18;3.65;;;;;;;13.14;73.15;101366.19;5028513;28;20037;-69
2023/01/01 10:57:40;;;;;;;11.07;3.38;;;;;;;13.18;73.04;101375.72;5023330;28;20061;-69
2023/01/01 11:00:13;;;;;;;13.73;5.70;;;;;;;13.20;72.88;101370.69;5011406;28;20606;-66
2023/01/01 11:02:39;;;;;;;9.55;4.03;;;;;;;13.26;72.01;101383.66;5025148;28;20376;-67
2023/01/01 11:05:15;;;;;;;12.40;5.03;;;;;;;13.29;72.11;101383.16;5015392;28;20029;-70
2023/01/01 11:07:41;;;;;;;13.25;4.43;;;;;;;13.32;72.34;101390.97;5026454;28;20091;-71
2023/01/01 11:10:21;;;;;;;11.60;4.35;;;;;;;13.33;71.50;101383.47;5024108;28;20037;-72
2023/01/01 11:12:49;;;;;;;10.30;4.15;;;;;;;13.32;71.54;101395.69;5027198;28;20052;-72
2023/01/01 11:15:35;;;;;;;9.50;3.00;;;;;;;13.35;71.27;101403.56;5026804;28;20524;-71
2023/01/01 11:18:12;;;;;;;11.30;3.35;;;;;;;13.36;71.40;101403.31;5028986;28;20083;-72
2023/01/01 11:20:38;;;;;;;14.38;3.80;;;;;;;13.36;71.58;101394.09;5028946;28;20718;-72
2023/01/01 11:23:32;;;;;;;12.50;3.83;;;;;;;13.42;71.25;101410.63;5027588;28;20057;-71
2023/01/01 11:26:16;;;;;;;8.80;2.88;;;;;;;13.42;71.32;101419.00;5026454;28;20103;-72
2023/01/01 11:28:57;;;;;;;10.00;3.58;;;;;;;13.40;70.45;101410.06;5026621;28;20040;-69
2023/01/01 11:31:28;;;;;;;11.85;4.07;;;;;;;13.38;70.38;101400.25;5021986;28;20025;-71
2023/01/01 11:33:55;;;;;;;18.77;4.82;;;;;;;13.37;70.58;101399.41;5028778;28;20037;-69
2023/01/01 11:36:32;;;;;;;11.73;4.32;;;;;;;13.40;70.78;101398.91;5024288;28;20022;-71